State University, Arkansas
Current Conditions -  °F | °C
As of 10:53 PM on Friday 24 Oct 2014 (Local Time) from KJBR Reporting Station
Clear Clear  
Wind Chill: 64°   Ceiling: Unl
Heat Index: 64°   Visibility: 10mi
Dew Point: 56°   Wind: 6mph
Humidity: 75%   Direction: 260°W
Pressure: 30.08"   Gusts: NA
Location:  35.85°N, 90.68°W
Report Text: KJBR 250353Z AUTO 26005KT 10SM CLR 18/13 A3008 RMK AO2 SLP183 T01780133
Loading
Personal Weather Stations






























Interactive Weather Map
Tropical Storm Tracking
New forecast layout! Learn more

10-Day Weather Forecast

Advertisements
Track Severe Weather on mobile